ROK weather

Rockhampton Airport
Rockhampton, Queensland, Australia

Public forecast

Using degrees Celsius for public forecast. Weather courtesy of forecast.io.

METAR (pilot weather report)

Retrieved 2019/02/21 17:30 UTC (8 minutes ago):

YBRK 211730Z AUTO 11005KT 9999 // NCD 26/21 Q1005 RF00.0/000.0

TAF (pilot weather forecast)

Retrieved 2019/02/21 12:51 UTC (5 hours ago):

TAF YBRK 211139Z 2112/2212 16005KT 9999 FEW025 FM212300 13008KT 9999 FEW045